createdAt,value
2022-10-24T00:01:12.649Z,11.64
2022-10-24T00:02:44.366Z,12.82
2022-10-24T00:04:16.212Z,11.84
2022-10-24T00:05:47.529Z,10.25
2022-10-24T00:07:18.942Z,10.33
2022-10-24T00:08:50.351Z,10.06
2022-10-24T00:10:21.850Z,13.30
2022-10-24T00:11:53.363Z,11.89
2022-10-24T00:13:24.766Z,12.14
2022-10-24T00:14:56.355Z,10.21
2022-10-24T00:16:27.667Z,11.79
2022-10-24T00:17:59.066Z,10.78
2022-10-24T00:19:30.440Z,13.57
2022-10-24T00:21:03.197Z,13.15
2022-10-24T00:22:34.623Z,14.42
2022-10-24T00:24:06.019Z,11.42
2022-10-24T00:25:37.596Z,10.84
2022-10-24T00:27:08.994Z,11.71
2022-10-24T00:28:40.459Z,13.49
2022-10-24T00:30:11.798Z,14.42
2022-10-24T00:31:43.205Z,8.94
2022-10-24T00:33:14.510Z,10.40
2022-10-24T00:34:46.088Z,13.40
2022-10-24T00:36:17.778Z,10.38
2022-10-24T00:37:49.176Z,10.84
2022-10-24T00:39:20.578Z,12.04
2022-10-24T00:40:51.889Z,13.04
2022-10-24T00:42:23.229Z,14.60
2022-10-24T00:43:54.752Z,12.60
2022-10-24T00:45:26.182Z,13.60
2022-10-24T00:46:57.709Z,13.62
2022-10-24T00:48:29.083Z,11.58
2022-10-24T00:50:00.719Z,9.80
2022-10-24T00:51:32.071Z,11.24
2022-10-24T00:53:03.639Z,10.90
2022-10-24T00:54:35.236Z,12.82
2022-10-24T00:56:07.151Z,13.02
2022-10-24T00:57:38.568Z,13.79
2022-10-24T00:59:10.019Z,12.52
2022-10-24T01:00:41.612Z,12.30
2022-10-24T01:03:44.240Z,11.73
2022-10-24T01:05:15.656Z,11.48
2022-10-24T01:06:47.139Z,11.38
2022-10-24T01:08:18.444Z,9.87
2022-10-24T01:09:49.848Z,11.45
2022-10-24T01:11:21.185Z,11.48
2022-10-24T01:12:52.563Z,12.69
2022-10-24T01:14:23.982Z,9.89
2022-10-24T01:15:55.630Z,11.65
2022-10-24T01:17:27.099Z,13.09
2022-10-24T01:18:58.560Z,11.17
2022-10-24T01:20:30.068Z,12.61
2022-10-24T01:22:01.488Z,11.63
2022-10-24T01:23:32.863Z,9.76
2022-10-24T01:25:04.187Z,9.84
2022-10-24T01:26:35.553Z,8.92
2022-10-24T01:28:06.851Z,10.82
2022-10-24T01:29:38.154Z,12.26
2022-10-24T01:31:10.133Z,10.15
2022-10-24T01:32:41.604Z,10.06
2022-10-24T01:34:12.969Z,11.61
2022-10-24T01:35:44.308Z,11.08
2022-10-24T01:37:15.613Z,10.31
2022-10-24T01:38:47.047Z,10.97
2022-10-24T01:40:18.647Z,9.66
2022-10-24T01:41:50.244Z,10.17
2022-10-24T01:43:21.550Z,10.67
2022-10-24T01:44:52.858Z,11.45
2022-10-24T01:46:24.166Z,10.33
2022-10-24T01:47:55.676Z,10.47
2022-10-24T01:49:27.014Z,11.07
2022-10-24T01:50:58.432Z,8.13
2022-10-24T01:52:29.811Z,10.47
2022-10-24T01:54:01.123Z,11.34
2022-10-24T01:55:32.422Z,11.29
2022-10-24T01:57:03.773Z,11.79
2022-10-24T01:58:35.119Z,10.43
2022-10-24T02:00:06.409Z,12.05
2022-10-24T02:01:37.904Z,8.65
2022-10-24T02:03:10.465Z,9.69
2022-10-24T02:04:41.948Z,10.23
2022-10-24T02:06:13.419Z,10.17
2022-10-24T02:07:44.737Z,11.80
2022-10-24T02:09:16.239Z,10.75
2022-10-24T02:10:47.733Z,10.98
2022-10-24T02:12:24.024Z,9.54
2022-10-24T02:13:55.364Z,10.30
2022-10-24T02:15:26.865Z,8.95
2022-10-24T02:16:58.378Z,8.40
2022-10-24T02:18:29.892Z,8.95
2022-10-24T02:20:01.377Z,8.41
2022-10-24T02:21:32.770Z,8.45
2022-10-24T02:23:04.047Z,9.30
2022-10-24T02:24:35.495Z,11.57
2022-10-24T02:26:06.884Z,9.47
2022-10-24T02:27:38.219Z,9.87
2022-10-24T02:29:09.607Z,8.94
2022-10-24T02:30:41.175Z,10.61
2022-10-24T02:32:12.511Z,12.89
2022-10-24T02:33:43.855Z,11.96
2022-10-24T02:35:15.164Z,10.02
2022-10-24T02:36:46.485Z,13.32
2022-10-24T02:38:17.922Z,11.17
2022-10-24T02:39:49.543Z,11.75
2022-10-24T02:41:20.905Z,8.55
2022-10-24T02:42:52.389Z,9.56
2022-10-24T02:44:23.696Z,9.73
2022-10-24T02:45:55.010Z,8.48
2022-10-24T02:47:26.357Z,11.08
2022-10-24T02:48:57.713Z,11.38
2022-10-24T02:50:29.019Z,8.86
2022-10-24T02:52:00.417Z,10.36
2022-10-24T02:53:31.909Z,14.81
2022-10-24T02:55:03.211Z,8.87
2022-10-24T02:56:34.557Z,10.21
2022-10-24T02:58:06.017Z,9.25
2022-10-24T02:59:37.464Z,8.17
2022-10-24T03:01:08.832Z,8.84
2022-10-24T03:02:40.268Z,12.57
2022-10-24T03:04:11.657Z,7.48
2022-10-24T03:05:43.101Z,6.51
2022-10-24T03:07:14.495Z,8.47
2022-10-24T03:08:45.916Z,10.14
2022-10-24T03:10:17.421Z,10.03
2022-10-24T03:11:48.995Z,11.16
2022-10-24T03:13:20.304Z,10.01
2022-10-24T03:14:51.602Z,8.11
2022-10-24T03:16:22.994Z,12.13
2022-10-24T03:17:54.279Z,11.20
2022-10-24T03:19:25.588Z,8.76
2022-10-24T03:20:57.154Z,10.20
2022-10-24T03:22:30.603Z,9.45
2022-10-24T03:24:02.325Z,10.58
2022-10-24T03:25:34.244Z,7.64
2022-10-24T03:27:05.791Z,10.45
2022-10-24T03:28:37.173Z,10.92
2022-10-24T03:30:08.516Z,7.68
2022-10-24T03:31:40.280Z,10.18
2022-10-24T03:33:11.630Z,9.46
2022-10-24T03:34:42.957Z,8.87
2022-10-24T03:36:14.223Z,9.18
2022-10-24T03:37:45.693Z,8.97
2022-10-24T03:39:17.132Z,12.00
2022-10-24T03:40:48.520Z,10.18
2022-10-24T03:42:19.822Z,9.86
2022-10-24T03:43:51.247Z,9.01
2022-10-24T03:45:22.539Z,7.68
2022-10-24T03:46:53.863Z,9.13
2022-10-24T03:48:25.187Z,10.38
2022-10-24T03:49:56.496Z,10.12
2022-10-24T03:51:28.020Z,10.27
2022-10-24T03:52:59.396Z,9.74
2022-10-24T03:54:30.835Z,10.99
2022-10-24T03:56:02.140Z,11.09
2022-10-24T03:57:33.450Z,9.81
2022-10-24T03:59:04.777Z,10.83
2022-10-24T04:00:36.261Z,10.98
2022-10-24T04:02:07.589Z,9.91
2022-10-24T04:03:38.876Z,9.26
2022-10-24T04:05:10.305Z,10.77
2022-10-24T04:06:41.672Z,12.50
2022-10-24T04:08:13.000Z,7.54
2022-10-24T04:09:44.416Z,9.07
2022-10-24T04:11:15.723Z,10.85
2022-10-24T04:12:47.160Z,9.02
2022-10-24T04:14:18.563Z,8.03
2022-10-24T04:15:50.000Z,10.42
2022-10-24T04:17:21.657Z,9.66
2022-10-24T04:18:53.035Z,7.79
2022-10-24T04:20:24.413Z,10.76
2022-10-24T04:21:55.724Z,8.36
2022-10-24T04:23:27.028Z,10.58
2022-10-24T04:24:58.475Z,10.74
2022-10-24T04:26:29.876Z,9.67
2022-10-24T04:28:01.275Z,11.92
2022-10-24T04:29:32.584Z,12.19
2022-10-24T04:31:03.892Z,7.79
2022-10-24T04:32:35.404Z,11.35
2022-10-24T04:34:06.664Z,8.49
2022-10-24T04:35:38.103Z,7.90
2022-10-24T04:37:09.405Z,11.29
2022-10-24T04:38:40.909Z,13.27
2022-10-24T04:40:12.215Z,11.81
2022-10-24T04:41:43.553Z,8.10
2022-10-24T04:43:14.841Z,8.70
2022-10-24T04:44:46.215Z,7.92
2022-10-24T04:46:17.567Z,8.12
2022-10-24T04:47:48.988Z,7.47
2022-10-24T04:49:20.307Z,10.12
2022-10-24T04:50:51.701Z,9.31
2022-10-24T04:52:23.029Z,8.81
2022-10-24T04:53:54.553Z,10.23
2022-10-24T04:55:26.219Z,12.92
2022-10-24T04:56:57.827Z,9.00
2022-10-24T04:58:34.212Z,9.61
2022-10-24T05:00:05.597Z,8.38
2022-10-24T05:01:37.426Z,9.69
2022-10-24T05:03:09.011Z,12.06
2022-10-24T05:04:40.381Z,10.49
2022-10-24T05:06:11.755Z,13.34
2022-10-24T05:07:43.384Z,10.79
2022-10-24T05:09:14.911Z,10.75
2022-10-24T05:10:46.854Z,7.97
2022-10-24T05:12:51.620Z,10.36
2022-10-24T05:14:28.053Z,11.44
2022-10-24T05:15:59.594Z,9.08
2022-10-24T05:17:30.981Z,10.57
2022-10-24T05:19:02.278Z,7.53
2022-10-24T05:20:38.738Z,8.38
2022-10-24T05:22:11.009Z,9.86
2022-10-24T05:23:42.931Z,8.55
2022-10-24T05:25:14.253Z,7.61
2022-10-24T05:26:50.671Z,9.80
2022-10-24T05:28:22.087Z,8.33
2022-10-24T05:29:53.399Z,11.12
2022-10-24T05:31:24.761Z,8.98
2022-10-24T05:32:56.159Z,5.86
2022-10-24T05:34:27.527Z,9.01
2022-10-24T05:35:59.063Z,7.91
2022-10-24T05:39:03.016Z,8.68
2022-10-24T05:40:34.344Z,7.60
2022-10-24T05:42:05.723Z,8.30
2022-10-24T05:43:37.118Z,8.99
2022-10-24T05:45:08.402Z,7.68
2022-10-24T05:46:40.041Z,8.07
2022-10-24T05:48:11.316Z,7.51
2022-10-24T05:49:42.586Z,7.81
2022-10-24T05:51:13.887Z,9.21
2022-10-24T05:52:47.144Z,7.14
2022-10-24T05:54:18.953Z,8.49
2022-10-24T05:55:50.397Z,8.77
2022-10-24T05:57:22.127Z,8.26
2022-10-24T05:58:53.525Z,9.32
2022-10-24T06:00:24.821Z,7.30
2022-10-24T06:01:56.370Z,8.31
2022-10-24T06:03:27.855Z,8.37
2022-10-24T06:04:59.369Z,10.72
2022-10-24T06:06:30.835Z,6.68
2022-10-24T06:08:02.240Z,5.81
2022-10-24T06:09:33.550Z,10.36
2022-10-24T06:11:04.943Z,7.18
2022-10-24T06:12:36.472Z,7.51
2022-10-24T06:14:07.923Z,9.76
2022-10-24T06:15:39.551Z,9.54
2022-10-24T06:17:11.042Z,10.09
2022-10-24T06:18:42.326Z,8.58
2022-10-24T06:20:13.651Z,6.23
2022-10-24T06:21:45.173Z,8.46
2022-10-24T06:23:16.761Z,9.51
2022-10-24T06:24:48.144Z,7.21
2022-10-24T06:26:23.147Z,6.24
2022-10-24T06:27:56.608Z,8.63
2022-10-24T06:29:28.130Z,6.88
2022-10-24T06:30:59.621Z,9.04
2022-10-24T06:32:30.914Z,7.78
2022-10-24T06:34:02.273Z,5.02
2022-10-24T06:35:33.588Z,7.37
2022-10-24T06:37:04.857Z,5.80
2022-10-24T06:38:36.189Z,6.87
2022-10-24T06:40:07.541Z,6.75
2022-10-24T06:41:38.949Z,8.89
2022-10-24T06:43:10.241Z,8.66
2022-10-24T06:44:41.562Z,8.48
2022-10-24T06:46:12.909Z,4.71
2022-10-24T06:47:44.853Z,6.54
2022-10-24T06:49:16.327Z,6.25
2022-10-24T06:50:47.725Z,7.35
2022-10-24T06:52:19.025Z,8.00
2022-10-24T06:53:50.336Z,9.23
2022-10-24T06:55:21.648Z,6.46
2022-10-24T06:56:53.086Z,7.82
2022-10-24T06:58:24.576Z,7.25
2022-10-24T06:59:55.974Z,6.60
2022-10-24T07:01:32.690Z,5.51
2022-10-24T07:03:04.151Z,5.63
2022-10-24T07:04:35.600Z,6.90
2022-10-24T07:06:07.058Z,8.27
2022-10-24T07:07:38.494Z,6.05
2022-10-24T07:09:11.601Z,5.91
2022-10-24T07:10:45.834Z,8.48
2022-10-24T07:12:17.432Z,7.25
2022-10-24T07:13:48.936Z,6.86
2022-10-24T07:15:21.328Z,8.20
2022-10-24T07:16:52.830Z,7.61
2022-10-24T07:18:24.137Z,7.47
2022-10-24T07:19:55.497Z,7.07
2022-10-24T07:21:26.844Z,4.94
2022-10-24T07:22:58.183Z,6.85
2022-10-24T07:24:29.792Z,7.65
2022-10-24T07:26:01.181Z,9.39
2022-10-24T07:27:32.576Z,6.64
2022-10-24T07:29:04.291Z,6.80
2022-10-24T07:30:36.062Z,8.36
2022-10-24T07:32:07.463Z,6.74
2022-10-24T07:33:38.910Z,6.45
2022-10-24T07:35:10.288Z,9.21
2022-10-24T07:36:43.880Z,8.64
2022-10-24T07:38:17.934Z,7.93
2022-10-24T07:39:50.346Z,7.17
2022-10-24T07:41:21.781Z,7.24
2022-10-24T07:42:53.312Z,8.03
2022-10-24T07:44:24.666Z,4.44
2022-10-24T07:45:56.176Z,5.89
2022-10-24T07:47:27.539Z,9.86
2022-10-24T07:48:59.044Z,8.69
2022-10-24T07:50:35.394Z,9.30
2022-10-24T07:52:07.166Z,7.28
2022-10-24T07:53:38.760Z,6.14
2022-10-24T07:55:10.204Z,7.26
2022-10-24T07:56:41.650Z,8.06
2022-10-24T07:58:12.944Z,5.93
2022-10-24T07:59:44.304Z,7.18
2022-10-24T08:01:15.727Z,6.44
2022-10-24T08:02:47.195Z,7.32
2022-10-24T08:04:18.620Z,7.59
2022-10-24T08:05:49.920Z,6.12
2022-10-24T08:09:25.864Z,7.81
2022-10-24T08:11:07.385Z,6.07
2022-10-24T08:12:39.067Z,5.90
2022-10-24T08:14:28.422Z,5.47
2022-10-24T08:16:00.028Z,7.22
2022-10-24T08:17:31.518Z,5.64
2022-10-24T08:19:03.119Z,4.42
2022-10-24T08:20:34.528Z,6.91
2022-10-24T08:22:05.987Z,8.83
2022-10-24T08:23:37.452Z,7.26
2022-10-24T08:25:08.835Z,6.63
2022-10-24T08:26:40.186Z,5.17
2022-10-24T08:28:11.787Z,6.03
2022-10-24T08:29:43.206Z,7.83
2022-10-24T08:31:14.565Z,6.59
2022-10-24T08:32:46.454Z,6.01
2022-10-24T08:34:18.440Z,7.95
2022-10-24T08:35:49.961Z,7.53
2022-10-24T08:37:21.480Z,6.85
2022-10-24T08:38:52.866Z,6.17
2022-10-24T08:40:24.261Z,8.70
2022-10-24T08:41:57.974Z,6.71
2022-10-24T08:43:31.856Z,7.39
2022-10-24T08:45:03.357Z,6.89
2022-10-24T08:46:34.771Z,5.28
2022-10-24T08:48:06.139Z,6.99
2022-10-24T08:49:37.506Z,7.61
2022-10-24T08:51:08.865Z,8.48
2022-10-24T08:52:40.366Z,8.84
2022-10-24T08:54:11.703Z,7.83
2022-10-24T08:55:49.239Z,5.45
2022-10-24T08:57:23.587Z,7.26
2022-10-24T08:58:55.205Z,6.70
2022-10-24T09:00:28.244Z,6.47
2022-10-24T09:02:02.105Z,9.41
2022-10-24T09:03:55.677Z,6.88
2022-10-24T09:05:28.011Z,6.89
2022-10-24T09:06:59.515Z,6.68
2022-10-24T09:08:30.835Z,7.81
2022-10-24T09:10:02.140Z,7.65
2022-10-24T09:11:33.490Z,8.03
2022-10-24T09:13:05.801Z,8.98
2022-10-24T09:14:37.233Z,5.72
2022-10-24T09:16:08.701Z,5.16
2022-10-24T09:17:40.040Z,6.99
2022-10-24T09:19:11.378Z,6.48
2022-10-24T09:20:42.866Z,6.18
2022-10-24T09:22:14.275Z,6.64
2022-10-24T09:23:46.026Z,5.83
2022-10-24T09:25:17.632Z,7.27
2022-10-24T09:26:49.080Z,8.55
2022-10-24T09:28:20.438Z,9.24
2022-10-24T09:29:52.432Z,9.57
2022-10-24T09:31:23.808Z,5.88
2022-10-24T09:32:55.310Z,7.04
2022-10-24T09:34:26.634Z,5.76
2022-10-24T09:35:57.978Z,5.08
2022-10-24T09:37:32.497Z,6.09
2022-10-24T09:39:08.862Z,4.87
2022-10-24T09:40:40.691Z,5.25
2022-10-24T09:42:11.996Z,5.67
2022-10-24T09:43:43.467Z,7.18
2022-10-24T09:45:14.791Z,7.06
2022-10-24T09:46:46.132Z,9.82
2022-10-24T09:48:17.679Z,7.27
2022-10-24T09:49:49.132Z,8.40
2022-10-24T09:51:20.539Z,6.11
2022-10-24T09:52:51.894Z,5.94
2022-10-24T09:54:23.220Z,5.84
2022-10-24T09:55:54.664Z,7.41
2022-10-24T09:57:28.090Z,7.53
2022-10-24T09:59:02.381Z,8.38
2022-10-24T10:00:33.804Z,9.49
2022-10-24T10:02:06.573Z,7.43
2022-10-24T10:03:38.115Z,7.77
2022-10-24T10:05:09.467Z,9.45
2022-10-24T10:06:40.909Z,7.45
2022-10-24T10:08:12.211Z,7.03
2022-10-24T10:09:43.592Z,8.97
2022-10-24T10:11:15.124Z,8.53
2022-10-24T10:12:46.588Z,5.37
2022-10-24T10:14:17.973Z,6.41
2022-10-24T10:15:49.315Z,7.33
2022-10-24T10:17:20.885Z,9.42
2022-10-24T10:18:52.541Z,9.33
2022-10-24T10:20:23.943Z,7.61
2022-10-24T10:21:55.287Z,7.00
2022-10-24T10:23:26.706Z,7.55
2022-10-24T10:24:58.038Z,6.90
2022-10-24T10:26:30.490Z,8.70
2022-10-24T10:28:03.192Z,8.89
2022-10-24T10:29:34.733Z,7.85
2022-10-24T10:31:06.348Z,6.86
2022-10-24T10:32:37.986Z,8.69
2022-10-24T10:34:09.570Z,9.08
2022-10-24T10:35:41.084Z,7.07
2022-10-24T10:37:12.402Z,8.26
2022-10-24T10:38:43.752Z,9.63
2022-10-24T10:40:15.289Z,6.77
2022-10-24T10:41:46.954Z,9.00
2022-10-24T10:43:18.329Z,8.97
2022-10-24T10:44:49.678Z,7.00
2022-10-24T10:46:21.121Z,8.05
2022-10-24T10:48:14.927Z,5.91
2022-10-24T10:49:46.864Z,6.91
2022-10-24T10:51:18.238Z,5.85
2022-10-24T10:52:49.809Z,8.25
2022-10-24T10:54:21.328Z,9.30
2022-10-24T10:55:52.695Z,8.03
2022-10-24T10:57:28.825Z,7.59
2022-10-24T10:59:00.772Z,7.22
2022-10-24T11:00:32.097Z,4.91
2022-10-24T11:02:03.573Z,8.08
2022-10-24T11:03:35.078Z,6.23
2022-10-24T11:05:06.373Z,7.03
2022-10-24T11:06:37.767Z,5.70
2022-10-24T11:08:09.255Z,8.75
2022-10-24T11:09:40.648Z,9.70
2022-10-24T11:11:12.087Z,6.58
2022-10-24T11:12:43.533Z,7.22
2022-10-24T11:14:14.911Z,7.51
2022-10-24T11:15:46.400Z,7.67
2022-10-24T11:17:17.983Z,7.14
2022-10-24T11:18:49.546Z,5.37
2022-10-24T11:20:21.046Z,4.80
2022-10-24T11:24:13.599Z,7.44
2022-10-24T11:25:50.503Z,7.89
2022-10-24T11:27:37.311Z,7.13
2022-10-24T11:29:29.806Z,7.74
2022-10-24T11:31:21.271Z,8.42
2022-10-24T11:32:52.922Z,6.58
2022-10-24T11:34:34.769Z,6.11
2022-10-24T11:36:06.585Z,9.22
2022-10-24T11:37:42.972Z,7.05
2022-10-24T11:39:54.310Z,5.43
2022-10-24T11:41:26.067Z,8.08
2022-10-24T11:42:57.727Z,7.29
2022-10-24T11:44:29.171Z,9.04
2022-10-24T11:46:00.527Z,6.72
2022-10-24T11:47:31.900Z,9.26
2022-10-24T11:49:03.546Z,6.99
2022-10-24T11:50:35.075Z,6.08
2022-10-24T11:52:06.475Z,7.65
2022-10-24T11:53:37.952Z,5.96
2022-10-24T11:55:09.268Z,10.11
2022-10-24T11:56:40.636Z,9.53
2022-10-24T11:58:12.167Z,9.17
2022-10-24T12:00:03.659Z,7.58
2022-10-24T12:01:45.147Z,9.22
2022-10-24T12:03:16.616Z,6.38
2022-10-24T12:04:48.340Z,8.67
2022-10-24T12:06:19.756Z,9.11
2022-10-24T12:07:51.164Z,9.76
2022-10-24T12:09:23.777Z,10.06
2022-10-24T12:10:55.245Z,9.63
2022-10-24T12:12:26.666Z,8.10
2022-10-24T12:13:58.059Z,6.56
2022-10-24T12:15:29.704Z,7.17
2022-10-24T12:17:01.316Z,7.78
2022-10-24T12:18:32.633Z,9.78
2022-10-24T12:20:04.061Z,9.37
2022-10-24T12:21:35.523Z,8.15
2022-10-24T12:23:07.030Z,9.01
2022-10-24T12:24:38.486Z,7.71
2022-10-24T12:26:09.903Z,9.21
2022-10-24T12:27:41.339Z,9.04
2022-10-24T12:29:12.715Z,8.16
2022-10-24T12:30:44.240Z,8.32
2022-10-24T12:32:15.628Z,7.23
2022-10-24T12:33:47.092Z,7.43
2022-10-24T12:35:29.854Z,7.10
2022-10-24T12:37:02.585Z,7.05
2022-10-24T12:38:33.974Z,7.27
2022-10-24T12:40:10.344Z,10.56
2022-10-24T12:41:41.699Z,10.77
2022-10-24T12:43:13.082Z,10.39
2022-10-24T12:44:44.952Z,10.45
2022-10-24T12:46:22.596Z,9.93
2022-10-24T12:49:26.438Z,11.55
2022-10-24T12:50:57.821Z,9.11
2022-10-24T12:52:29.267Z,9.74
2022-10-24T12:54:00.614Z,7.66
2022-10-24T12:55:39.463Z,7.46
2022-10-24T12:57:11.204Z,10.95
2022-10-24T12:58:42.753Z,10.76
2022-10-24T13:00:14.227Z,8.33
2022-10-24T13:01:45.816Z,5.02
2022-10-24T13:03:17.281Z,11.52
2022-10-24T13:04:48.600Z,14.52
2022-10-24T13:06:20.167Z,10.83
2022-10-24T13:07:51.962Z,11.80
2022-10-24T13:09:23.643Z,12.32
2022-10-24T13:10:55.169Z,10.46
2022-10-24T13:12:26.777Z,12.05
2022-10-24T13:13:58.116Z,13.18
2022-10-24T13:15:29.517Z,8.27
2022-10-24T13:17:02.013Z,10.28
2022-10-24T13:18:33.392Z,8.83
2022-10-24T13:20:04.798Z,8.40
2022-10-24T13:23:07.626Z,9.69
2022-10-24T13:24:39.010Z,7.59
2022-10-24T13:26:10.428Z,9.86
2022-10-24T13:28:01.935Z,6.97
2022-10-24T13:29:33.346Z,8.63
2022-10-24T13:31:04.823Z,9.14
2022-10-24T13:32:36.206Z,11.19
2022-10-24T13:34:07.644Z,9.60
2022-10-24T13:35:39.277Z,10.53
2022-10-24T13:37:10.659Z,8.58
2022-10-24T13:38:42.187Z,9.97
2022-10-24T13:40:13.615Z,10.80
2022-10-24T13:41:45.013Z,8.04
2022-10-24T13:43:16.520Z,10.32
2022-10-24T13:44:47.880Z,9.47
2022-10-24T13:46:19.301Z,11.30
2022-10-24T13:47:50.859Z,9.06
2022-10-24T13:49:22.206Z,10.33
2022-10-24T13:50:53.679Z,9.95
2022-10-24T13:52:25.044Z,9.48
2022-10-24T13:53:56.495Z,10.70
2022-10-24T13:55:27.852Z,9.96
2022-10-24T13:57:02.010Z,10.03
2022-10-24T13:58:36.668Z,10.16
2022-10-24T14:00:10.244Z,11.07
2022-10-24T14:01:41.810Z,10.56
2022-10-24T14:03:13.123Z,10.86
2022-10-24T14:04:44.513Z,11.11
2022-10-24T14:06:15.968Z,8.62
2022-10-24T14:07:47.415Z,9.06
2022-10-24T14:09:18.951Z,8.00
2022-10-24T14:11:07.861Z,8.28
2022-10-24T14:12:39.442Z,8.29
2022-10-24T14:14:13.698Z,7.32
2022-10-24T14:16:05.323Z,9.19
2022-10-24T14:18:13.009Z,9.42
2022-10-24T14:19:46.814Z,8.16
2022-10-24T14:21:18.695Z,8.79
2022-10-24T14:22:50.166Z,7.38
2022-10-24T14:24:21.751Z,5.51
2022-10-24T14:25:53.175Z,7.53
2022-10-24T14:27:24.602Z,7.33
2022-10-24T14:28:58.902Z,7.04
2022-10-24T14:30:33.595Z,7.39
2022-10-24T14:32:06.474Z,9.33
2022-10-24T14:33:38.047Z,9.84
2022-10-24T14:35:09.805Z,10.66
2022-10-24T14:36:41.592Z,7.47
2022-10-24T14:38:13.197Z,8.58
2022-10-24T14:39:44.759Z,9.10
2022-10-24T14:41:16.381Z,8.05
2022-10-24T14:42:47.729Z,6.96
2022-10-24T14:44:19.074Z,9.03
2022-10-24T14:45:50.560Z,6.72
2022-10-24T14:47:22.099Z,6.50
2022-10-24T14:48:53.473Z,8.70
2022-10-24T14:50:24.809Z,9.31
2022-10-24T14:51:56.528Z,7.55
2022-10-24T14:53:28.726Z,6.86
2022-10-24T14:55:05.197Z,6.74
2022-10-24T14:56:36.634Z,8.17
2022-10-24T14:58:08.115Z,6.89
2022-10-24T14:59:39.586Z,8.58
2022-10-24T15:01:11.301Z,7.12
2022-10-24T15:02:43.519Z,8.38
2022-10-24T15:04:15.172Z,8.05
2022-10-24T15:05:46.652Z,8.28
2022-10-24T15:07:18.032Z,7.91
2022-10-24T15:08:49.678Z,8.79
2022-10-24T15:10:21.147Z,6.71
2022-10-24T15:11:52.753Z,8.41
2022-10-24T15:13:24.239Z,6.45
2022-10-24T15:14:55.771Z,8.26
2022-10-24T15:16:27.235Z,8.88
2022-10-24T15:17:58.617Z,6.04
2022-10-24T15:19:30.363Z,7.23
2022-10-24T15:21:01.938Z,8.65
2022-10-24T15:22:33.490Z,7.77
2022-10-24T15:24:04.951Z,7.39
2022-10-24T15:25:38.027Z,9.73
2022-10-24T15:27:12.059Z,9.53
2022-10-24T15:28:43.517Z,6.61
2022-10-24T15:30:15.027Z,7.42
2022-10-24T15:31:46.425Z,9.10
2022-10-24T15:33:17.936Z,8.84
2022-10-24T15:34:49.358Z,9.80
2022-10-24T15:36:20.776Z,7.35
2022-10-24T15:37:52.380Z,8.77
2022-10-24T15:39:38.873Z,7.59
2022-10-24T15:41:26.102Z,8.89
2022-10-24T15:42:57.470Z,10.42
2022-10-24T15:44:29.117Z,7.93
2022-10-24T15:46:01.191Z,10.94
2022-10-24T15:47:32.543Z,9.30
2022-10-24T15:49:08.875Z,8.75
2022-10-24T15:50:40.521Z,9.56
2022-10-24T15:52:11.844Z,9.80
2022-10-24T15:53:43.201Z,10.77
2022-10-24T15:55:33.732Z,9.13
2022-10-24T15:57:05.504Z,8.19
2022-10-24T15:58:37.197Z,10.56
2022-10-24T16:00:08.556Z,11.93
2022-10-24T16:01:40.684Z,12.90
2022-10-24T16:03:12.803Z,10.78
2022-10-24T16:04:44.286Z,14.53
2022-10-24T16:06:25.986Z,12.86
2022-10-24T16:08:07.431Z,13.31
2022-10-24T16:09:38.887Z,12.53
2022-10-24T16:11:20.883Z,13.72
2022-10-24T16:13:07.308Z,13.00
2022-10-24T16:14:49.311Z,11.55
2022-10-24T16:16:31.259Z,11.60
2022-10-24T16:18:22.613Z,10.30
2022-10-24T16:19:53.964Z,10.55
2022-10-24T16:21:25.359Z,9.22
2022-10-24T16:22:57.476Z,12.46
2022-10-24T16:24:28.815Z,11.82
2022-10-24T16:26:00.155Z,14.66
2022-10-24T16:27:31.638Z,12.34
2022-10-24T16:29:02.955Z,14.50
2022-10-24T16:30:34.276Z,14.25
2022-10-24T16:32:15.817Z,15.06
2022-10-24T16:33:47.197Z,15.56
2022-10-24T16:35:18.692Z,15.24
2022-10-24T16:36:50.570Z,13.71
2022-10-24T16:38:23.254Z,15.19
2022-10-24T16:39:54.669Z,13.55
2022-10-24T16:41:31.328Z,12.91
2022-10-24T16:43:03.394Z,10.78
2022-10-24T16:44:36.439Z,14.56
2022-10-24T16:46:09.286Z,13.51
2022-10-24T16:47:41.189Z,13.88
2022-10-24T16:49:18.292Z,16.99
2022-10-24T16:51:00.105Z,14.50
2022-10-24T16:52:31.506Z,14.56
2022-10-24T16:54:02.948Z,12.93
2022-10-24T16:55:34.494Z,13.75
2022-10-24T16:57:06.205Z,10.10
2022-10-24T16:58:37.586Z,9.30
2022-10-24T17:00:08.966Z,8.26
2022-10-24T17:01:40.445Z,8.70
2022-10-24T17:03:11.906Z,11.77
2022-10-24T17:04:43.300Z,11.67
2022-10-24T17:06:14.743Z,15.02
2022-10-24T17:07:46.575Z,13.35
2022-10-24T17:09:18.343Z,12.10
2022-10-24T17:10:49.752Z,14.88
2022-10-24T17:12:21.308Z,13.55
2022-10-24T17:13:52.674Z,17.43
2022-10-24T17:15:24.234Z,14.06
2022-10-24T17:16:55.690Z,12.41
2022-10-24T17:18:27.282Z,12.18
2022-10-24T17:19:58.746Z,13.64
2022-10-24T17:21:30.119Z,13.45
2022-10-24T17:23:04.276Z,16.21
2022-10-24T17:24:37.996Z,14.41
2022-10-24T17:26:09.344Z,12.59
2022-10-24T17:27:41.058Z,14.45
2022-10-24T17:29:12.670Z,13.27
2022-10-24T17:30:44.645Z,13.07
2022-10-24T17:32:16.076Z,15.00
2022-10-24T17:33:47.439Z,15.47
2022-10-24T17:35:18.787Z,13.99
2022-10-24T17:36:50.274Z,17.92
2022-10-24T17:38:21.755Z,25.19
2022-10-24T17:39:53.042Z,24.33
2022-10-24T17:41:24.343Z,15.23
2022-10-24T17:42:56.150Z,13.29
2022-10-24T17:44:27.544Z,13.85
2022-10-24T17:45:58.921Z,15.43
2022-10-24T17:47:30.232Z,13.26
2022-10-24T17:49:01.703Z,18.22
2022-10-24T17:50:33.072Z,16.38
2022-10-24T17:52:04.672Z,14.87
2022-10-24T17:53:36.152Z,12.71
2022-10-24T17:55:11.215Z,12.72
2022-10-24T17:56:45.930Z,12.34
2022-10-24T17:58:17.286Z,14.51
2022-10-24T17:59:48.633Z,17.51
2022-10-24T18:01:25.143Z,15.46
2022-10-24T18:02:56.537Z,12.03
2022-10-24T18:04:37.916Z,17.36
2022-10-24T18:06:21.649Z,18.71
2022-10-24T18:07:55.528Z,15.01
2022-10-24T18:09:47.052Z,11.97
2022-10-24T18:11:35.381Z,16.08
2022-10-24T18:13:25.085Z,22.43
2022-10-24T18:14:56.709Z,20.82
2022-10-24T18:16:30.631Z,17.90
2022-10-24T18:18:19.103Z,12.65
2022-10-24T18:19:54.786Z,14.77
2022-10-24T18:21:41.305Z,16.57
2022-10-24T18:23:22.809Z,12.12
2022-10-24T18:25:32.829Z,15.35
2022-10-24T18:27:07.942Z,17.29
2022-10-24T18:28:39.640Z,12.39
2022-10-24T18:30:11.259Z,8.92
2022-10-24T18:32:04.326Z,8.09
2022-10-24T18:33:36.424Z,7.30
2022-10-24T18:35:13.807Z,7.52
2022-10-24T18:36:50.220Z,5.56
2022-10-24T18:38:22.296Z,4.53
2022-10-24T18:39:53.801Z,4.30
2022-10-24T18:41:25.405Z,4.52
2022-10-24T18:42:56.983Z,4.87
2022-10-24T18:44:32.249Z,5.56
2022-10-24T18:46:04.950Z,4.85
2022-10-24T18:47:48.922Z,6.80
2022-10-24T18:49:20.422Z,5.08
2022-10-24T18:51:20.538Z,5.47
2022-10-24T18:53:22.302Z,4.57
2022-10-24T18:54:55.822Z,4.74
2022-10-24T18:56:50.636Z,4.34
2022-10-24T18:58:42.639Z,4.51
2022-10-24T19:00:14.056Z,5.42
2022-10-24T19:01:45.543Z,4.87
2022-10-24T19:03:42.112Z,5.42
2022-10-24T19:05:21.642Z,6.31
2022-10-24T19:07:04.407Z,6.21
2022-10-24T19:08:46.910Z,7.92
2022-10-24T19:10:19.038Z,5.00
2022-10-24T19:12:02.993Z,4.88
2022-10-24T19:13:37.041Z,5.14
2022-10-24T19:15:08.850Z,4.27
2022-10-24T19:16:51.989Z,5.81
2022-10-24T19:18:28.573Z,5.67
2022-10-24T19:20:01.020Z,6.42
2022-10-24T19:21:33.769Z,5.72
2022-10-24T19:23:05.647Z,4.75
2022-10-24T19:24:47.977Z,5.98
2022-10-24T19:27:04.307Z,5.65
2022-10-24T19:28:36.981Z,5.34
2022-10-24T19:30:08.687Z,7.88
2022-10-24T19:31:40.237Z,5.65
2022-10-24T19:33:17.990Z,6.01
2022-10-24T19:35:05.015Z,6.26
2022-10-24T19:36:38.692Z,6.64
2022-10-24T19:38:10.281Z,7.38
2022-10-24T19:39:41.971Z,7.27
2022-10-24T19:41:13.633Z,6.49
2022-10-24T19:42:45.427Z,9.00
2022-10-24T19:44:17.720Z,7.18
2022-10-24T19:45:55.071Z,6.90
2022-10-24T19:47:45.491Z,6.29
2022-10-24T19:49:19.177Z,10.52
2022-10-24T19:50:50.456Z,6.82
2022-10-24T19:52:23.829Z,7.15
2022-10-24T19:54:05.351Z,7.41
2022-10-24T19:55:37.630Z,7.43
2022-10-24T19:57:08.971Z,7.77
2022-10-24T19:58:58.597Z,9.51
2022-10-24T20:00:35.237Z,7.86
2022-10-24T20:02:06.624Z,6.93
2022-10-24T20:03:37.901Z,8.36
2022-10-24T20:05:47.475Z,7.55
2022-10-24T20:07:18.815Z,7.61
2022-10-24T20:08:55.347Z,7.15
2022-10-24T20:10:31.659Z,9.16
2022-10-24T20:12:03.104Z,8.76
2022-10-24T20:13:34.376Z,7.45
2022-10-24T20:15:05.742Z,8.92
2022-10-24T20:16:37.124Z,7.18
2022-10-24T20:18:08.434Z,10.16
2022-10-24T20:19:39.765Z,7.92
2022-10-24T20:21:11.068Z,9.03
2022-10-24T20:22:42.424Z,10.21
2022-10-24T20:24:13.891Z,8.56
2022-10-24T20:25:45.191Z,8.27
2022-10-24T20:27:28.732Z,10.13
2022-10-24T20:29:15.452Z,11.17
2022-10-24T20:30:57.687Z,9.98
2022-10-24T20:32:29.130Z,10.65
2022-10-24T20:34:05.092Z,10.92
2022-10-24T20:35:39.910Z,12.29
2022-10-24T20:37:11.154Z,12.29